Time;durP1;ratioP1;P1;durP2;ratioP2;P2;SDS_P1;SDS_P2;PMS_P1;PMS_P2;Temp;Humidity;BMP_temperature;BMP_pressure;BME280_temperature;BME280_humidity;BME280_pressure;Samples;Min_cycle;Max_cycle;Signal;HPM_P1;HPM_P2
2023/07/09 00:02:30;;;;;;;10.80;5.35;;;15.40;99.90;;;;;;8333396;28;20028;-78
2023/07/09 00:06:31;;;;;;;7.72;5.22;;;15.40;99.90;;;;;;8314604;28;20055;-79
2023/07/09 00:10:31;;;;;;;8.98;4.55;;;15.50;99.90;;;;;;8331322;28;20037;-79
2023/07/09 00:14:32;;;;;;;9.52;4.90;;;15.40;99.90;;;;;;8332426;28;20018;-79
2023/07/09 00:18:34;;;;;;;8.48;4.50;;;15.30;99.90;;;;;;8331210;28;20022;-79
2023/07/09 00:22:35;;;;;;;6.43;4.75;;;15.30;99.90;;;;;;8315215;28;20037;-78
2023/07/09 00:26:37;;;;;;;7.45;4.63;;;15.20;99.90;;;;;;8332720;28;20079;-79
2023/07/09 00:30:38;;;;;;;9.27;4.20;;;15.10;99.90;;;;;;8332057;28;20380;-79
2023/07/09 00:34:38;;;;;;;8.93;4.97;;;15.00;99.90;;;;;;8328211;28;20026;-78
2023/07/09 00:38:40;;;;;;;6.50;4.35;;;15.00;99.90;;;;;;8329120;28;20044;-79
2023/07/09 00:42:47;;;;;;;7.53;5.25;;;14.90;99.90;;;;;;8328663;28;20490;-78
2023/07/09 00:46:47;;;;;;;6.82;5.25;;;14.80;99.90;;;;;;8311382;28;20028;-79
2023/07/09 00:50:52;;;;;;;6.60;5.38;;;15.10;99.90;;;;;;8328330;28;20492;-78
2023/07/09 00:54:53;;;;;;;8.93;5.13;;;15.00;99.90;;;;;;8316130;28;20022;-78
2023/07/09 00:58:56;;;;;;;14.48;5.60;;;14.90;99.90;;;;;;8328353;28;20039;-79
2023/07/09 01:02:58;;;;;;;15.18;5.30;;;14.80;99.90;;;;;;8328500;28;20175;-83
2023/07/09 01:06:58;;;;;;;10.70;5.38;;;14.60;99.90;;;;;;8308041;28;20384;-83
2023/07/09 01:10:59;;;;;;;10.32;5.65;;;14.60;99.90;;;;;;8307454;28;20037;-85
2023/07/09 01:15:00;;;;;;;9.35;5.32;;;14.50;99.90;;;;;;8307790;28;20025;-84
2023/07/09 01:19:00;;;;;;;9.32;5.25;;;14.40;99.90;;;;;;8328724;28;20240;-85
2023/07/09 01:23:01;;;;;;;8.32;5.43;;;14.50;99.90;;;;;;8329199;28;20393;-85
2023/07/09 01:27:02;;;;;;;9.63;5.45;;;14.50;99.90;;;;;;8310489;28;20037;-85
2023/07/09 01:31:04;;;;;;;11.32;5.05;;;14.40;99.90;;;;;;8328978;28;20022;-85
2023/07/09 01:35:06;;;;;;;8.45;5.03;;;14.40;99.90;;;;;;8328471;28;20021;-85
2023/07/09 01:39:07;;;;;;;14.07;5.50;;;14.50;99.90;;;;;;8310137;28;20033;-85
2023/07/09 01:43:07;;;;;;;11.15;5.15;;;14.40;99.90;;;;;;8325653;28;20108;-85
2023/07/09 01:47:08;;;;;;;6.20;4.65;;;14.40;99.90;;;;;;8310161;28;20032;-85
2023/07/09 01:51:11;;;;;;;11.52;4.93;;;14.40;99.90;;;;;;8327637;28;20584;-85
2023/07/09 01:55:16;;;;;;;13.48;5.15;;;14.20;99.90;;;;;;8328722;28;20017;-85
2023/07/09 01:59:17;;;;;;;9.73;5.35;;;14.10;99.90;;;;;;8327331;28;20393;-85
2023/07/09 02:03:17;;;;;;;6.53;5.10;;;14.10;99.90;;;;;;8310377;28;20022;-85
2023/07/09 02:07:20;;;;;;;12.60;5.50;;;14.20;99.90;;;;;;8309316;28;20429;-85
2023/07/09 02:11:20;;;;;;;8.40;5.45;;;14.20;99.90;;;;;;8308753;28;20022;-85
2023/07/09 02:15:21;;;;;;;10.45;4.60;;;14.20;99.90;;;;;;8327561;28;20021;-84
2023/07/09 02:19:21;;;;;;;8.23;4.70;;;14.10;99.90;;;;;;8309639;28;20018;-85
2023/07/09 02:23:27;;;;;;;10.88;5.57;;;14.10;99.90;;;;;;8327718;28;20500;-85
2023/07/09 02:27:28;;;;;;;11.23;5.63;;;14.00;99.90;;;;;;8326981;28;20034;-85
2023/07/09 02:31:29;;;;;;;8.45;5.05;;;14.00;99.90;;;;;;8309401;28;20032;-85
2023/07/09 02:35:30;;;;;;;8.70;5.25;;;14.00;99.90;;;;;;8307983;28;20010;-85
2023/07/09 02:39:30;;;;;;;8.43;5.18;;;14.10;99.90;;;;;;8309300;28;20402;-85
2023/07/09 02:43:31;;;;;;;10.15;4.93;;;14.10;99.90;;;;;;8327582;28;20029;-85
2023/07/09 02:47:31;;;;;;;12.00;4.85;;;14.00;99.90;;;;;;8326574;28;20649;-84
2023/07/09 02:51:33;;;;;;;7.95;4.95;;;14.00;99.90;;;;;;8309431;28;20068;-85
2023/07/09 02:55:34;;;;;;;10.35;5.10;;;13.90;99.90;;;;;;8309666;28;20109;-84
2023/07/09 02:59:35;;;;;;;13.80;5.07;;;13.90;99.90;;;;;;8325603;28;20368;-85
2023/07/09 03:03:35;;;;;;;9.25;4.88;;;13.90;99.90;;;;;;8325910;28;20017;-85
2023/07/09 03:07:36;;;;;;;9.13;4.95;;;13.80;99.90;;;;;;8327184;28;20033;-84
2023/07/09 03:11:37;;;;;;;14.30;5.00;;;13.70;99.90;;;;;;8311046;28;20025;-84
2023/07/09 03:15:37;;;;;;;12.18;5.57;;;13.70;99.90;;;;;;8332704;28;20017;-85
2023/07/09 03:19:38;;;;;;;12.20;5.35;;;13.80;99.90;;;;;;8314725;28;20049;-84
2023/07/09 03:23:38;;;;;;;14.30;5.85;;;13.80;99.90;;;;;;8331764;28;20032;-84
2023/07/09 03:27:39;;;;;;;9.77;5.22;;;13.70;99.90;;;;;;8330955;28;20120;-85
2023/07/09 03:31:40;;;;;;;9.68;5.50;;;13.70;99.90;;;;;;8306169;28;20014;-85
2023/07/09 03:35:41;;;;;;;12.45;5.75;;;13.60;99.90;;;;;;8332335;28;20018;-85
2023/07/09 03:39:41;;;;;;;15.05;6.15;;;13.70;99.90;;;;;;8331950;28;20025;-85
2023/07/09 03:43:42;;;;;;;11.10;5.60;;;13.70;99.90;;;;;;8332176;28;20036;-85
2023/07/09 03:47:42;;;;;;;9.90;5.40;;;13.70;99.90;;;;;;8313846;28;20021;-85
2023/07/09 03:51:43;;;;;;;15.52;6.13;;;13.60;99.90;;;;;;8313972;28;20021;-84
2023/07/09 03:55:51;;;;;;;7.32;5.38;;;13.60;99.90;;;;;;8331469;28;20420;-83
2023/07/09 03:59:51;;;;;;;10.07;5.72;;;13.80;99.90;;;;;;8306921;28;20025;-84
2023/07/09 04:03:52;;;;;;;11.60;5.38;;;14.00;99.90;;;;;;8313385;28;20033;-82
2023/07/09 04:07:53;;;;;;;10.13;5.20;;;14.40;99.90;;;;;;8313160;28;20079;-83
2023/07/09 04:11:53;;;;;;;7.03;5.07;;;14.60;99.90;;;;;;8331114;28;20044;-83
2023/07/09 04:15:57;;;;;;;10.80;5.00;;;14.80;99.90;;;;;;8312826;28;20021;-84
2023/07/09 04:19:58;;;;;;;7.90;5.18;;;14.90;99.90;;;;;;8331087;28;20025;-83
2023/07/09 04:23:58;;;;;;;8.73;5.22;;;14.90;99.90;;;;;;8329742;28;20034;-83
2023/07/09 04:27:59;;;;;;;12.52;5.43;;;15.30;99.90;;;;;;8312670;28;20112;-83
2023/07/09 04:32:00;;;;;;;7.13;5.10;;;16.40;99.90;;;;;;8330438;28;20477;-83
2023/07/09 04:36:00;;;;;;;8.05;4.70;;;17.00;99.90;;;;;;8312462;28;20033;-83
2023/07/09 04:40:01;;;;;;;9.27;4.18;;;17.80;99.90;;;;;;8328686;28;20117;-83
2023/07/09 04:44:01;;;;;;;8.63;4.72;;;18.60;99.90;;;;;;8312471;28;20025;-83
2023/07/09 04:48:02;;;;;;;6.45;4.70;;;19.00;99.90;;;;;;8311526;28;20021;-83
2023/07/09 04:52:03;;;;;;;7.88;4.72;;;19.50;99.90;;;;;;8311870;28;20029;-84
2023/07/09 04:56:04;;;;;;;5.75;4.57;;;20.00;99.90;;;;;;8328357;28;20017;-83
2023/07/09 05:00:05;;;;;;;7.30;4.70;;;20.70;99.90;;;;;;8328948;28;20029;-83
2023/07/09 05:04:06;;;;;;;10.60;4.68;;;20.90;99.90;;;;;;8327566;28;20071;-84
2023/07/09 05:08:07;;;;;;;5.68;4.10;;;21.40;99.90;;;;;;8316728;28;20124;-84
2023/07/09 05:12:08;;;;;;;5.97;4.13;;;22.10;99.90;;;;;;8328373;28;20546;-81
2023/07/09 05:16:08;;;;;;;6.65;4.28;;;22.80;99.90;;;;;;8326398;28;20057;-82
2023/07/09 05:20:09;;;;;;;7.70;4.60;;;23.00;99.90;;;;;;8311545;28;20021;-82
2023/07/09 05:24:10;;;;;;;6.10;4.40;;;23.70;99.90;;;;;;8328444;28;20017;-81
2023/07/09 05:28:11;;;;;;;6.20;4.05;;;24.00;99.90;;;;;;8327648;28;20026;-80
2023/07/09 05:32:11;;;;;;;7.68;4.13;;;24.40;99.90;;;;;;8308408;28;20021;-81
2023/07/09 05:36:15;;;;;;;5.07;3.95;;;25.20;99.90;;;;;;8310289;28;20049;-81
2023/07/09 05:40:16;;;;;;;6.22;4.15;;;25.20;99.90;;;;;;8328015;28;20026;-81
2023/07/09 05:44:17;;;;;;;9.95;4.40;;;25.70;99.90;;;;;;8310318;28;20449;-81
2023/07/09 05:48:17;;;;;;;5.63;3.88;;;25.70;99.90;;;;;;8327346;28;20079;-81
2023/07/09 05:52:19;;;;;;;6.38;4.07;;;26.30;99.90;;;;;;8328030;28;20095;-81
2023/07/09 05:56:20;;;;;;;6.38;4.78;;;26.70;99.90;;;;;;8327204;28;20048;-81
2023/07/09 06:00:20;;;;;;;9.48;4.43;;;27.00;99.90;;;;;;8326742;28;20018;-82
2023/07/09 06:04:21;;;;;;;7.18;4.45;;;27.00;99.90;;;;;;8326605;28;20468;-80
2023/07/09 06:08:22;;;;;;;8.05;4.32;;;27.50;99.90;;;;;;8309377;28;20025;-81
2023/07/09 06:12:23;;;;;;;8.23;4.65;;;27.60;99.90;;;;;;8326068;28;20033;-81
2023/07/09 06:16:23;;;;;;;8.50;4.45;;;27.80;99.90;;;;;;8322595;28;20075;-80
2023/07/09 06:20:24;;;;;;;7.43;4.20;;;28.40;99.90;;;;;;8324581;28;20026;-79
2023/07/09 06:24:24;;;;;;;5.97;3.88;;;28.70;99.90;;;;;;8326929;28;20076;-80
2023/07/09 06:28:28;;;;;;;6.25;4.45;;;28.80;99.90;;;;;;8307914;28;20116;-80
2023/07/09 06:32:29;;;;;;;5.25;3.75;;;29.10;99.90;;;;;;8309443;28;20017;-80
2023/07/09 06:36:29;;;;;;;6.75;3.90;;;29.40;99.90;;;;;;8307611;28;20028;-80
2023/07/09 06:40:30;;;;;;;7.10;4.40;;;30.00;99.90;;;;;;8305521;28;20164;-80
2023/07/09 06:44:30;;;;;;;6.47;4.15;;;30.50;99.90;;;;;;8305567;28;20018;-80
2023/07/09 06:48:31;;;;;;;7.20;4.00;;;30.50;99.90;;;;;;8313382;28;20084;-80
2023/07/09 06:52:32;;;;;;;7.13;4.10;;;30.50;99.90;;;;;;8312592;28;20188;-80
2023/07/09 06:56:32;;;;;;;6.03;3.88;;;30.70;99.90;;;;;;8329312;28;20029;-80
2023/07/09 07:00:37;;;;;;;6.80;4.38;;;31.00;99.90;;;;;;8344660;28;20144;-81
2023/07/09 07:04:37;;;;;;;7.53;4.18;;;31.20;99.90;;;;;;8324584;28;20029;-80
2023/07/09 07:08:38;;;;;;;4.47;3.88;;;31.60;99.60;;;;;;8331452;28;20022;-81
2023/07/09 07:12:45;;;;;;;7.07;3.85;;;31.80;99.90;;;;;;8329922;28;20029;-81
2023/07/09 07:16:45;;;;;;;9.18;4.03;;;32.40;96.90;;;;;;8326262;28;20026;-82
2023/07/09 07:20:46;;;;;;;4.85;3.83;;;32.30;97.80;;;;;;8324978;28;20053;-81
2023/07/09 07:24:47;;;;;;;7.88;3.85;;;32.60;96.20;;;;;;8326763;28;20045;-81
2023/07/09 07:28:47;;;;;;;7.40;3.80;;;32.30;96.60;;;;;;8327012;28;20517;-82
2023/07/09 07:32:48;;;;;;;7.30;4.38;;;32.60;96.50;;;;;;8312961;28;20076;-80
2023/07/09 07:36:50;;;;;;;5.90;4.00;;;32.50;96.60;;;;;;8326376;28;20018;-82
2023/07/09 07:40:50;;;;;;;9.15;4.18;;;32.40;97.10;;;;;;8327110;28;20517;-81
2023/07/09 07:44:52;;;;;;;7.13;4.07;;;32.70;96.50;;;;;;8330529;28;20040;-80
2023/07/09 07:48:52;;;;;;;5.55;4.03;;;32.30;97.00;;;;;;8332416;28;20029;-82
2023/07/09 07:52:53;;;;;;;6.30;4.15;;;32.50;96.80;;;;;;8328820;28;20036;-82
2023/07/09 07:56:53;;;;;;;5.85;4.30;;;32.40;98.70;;;;;;8328423;28;20036;-80
2023/07/09 08:00:56;;;;;;;5.65;3.70;;;32.90;95.40;;;;;;8298646;28;20041;-81
2023/07/09 08:04:57;;;;;;;4.28;3.63;;;33.00;96.00;;;;;;8321538;28;20045;-80
2023/07/09 08:08:58;;;;;;;5.70;3.90;;;33.50;93.60;;;;;;8326458;28;20045;-80
2023/07/09 08:12:58;;;;;;;4.68;3.85;;;33.70;95.70;;;;;;8332527;28;20029;-80
2023/07/09 08:16:59;;;;;;;5.75;3.97;;;33.80;93.40;;;;;;8308435;28;20033;-80
2023/07/09 08:21:00;;;;;;;6.13;3.55;;;33.80;93.20;;;;;;8305134;28;20254;-81
2023/07/09 08:25:00;;;;;;;5.40;3.90;;;33.40;94.50;;;;;;8327573;28;20041;-81
2023/07/09 08:29:01;;;;;;;5.85;3.95;;;33.50;92.40;;;;;;8308551;28;20112;-81
2023/07/09 08:33:01;;;;;;;4.47;3.65;;;33.80;92.40;;;;;;8307606;28;20041;-79
2023/07/09 08:37:03;;;;;;;7.95;3.70;;;34.00;90.30;;;;;;8327630;28;20450;-81
2023/07/09 08:41:08;;;;;;;6.45;4.05;;;34.00;93.00;;;;;;8310581;28;20032;-80
2023/07/09 08:45:29;;;;;;;5.00;3.65;;;34.10;87.40;;;;;;8327411;28;20438;-81
2023/07/09 08:49:43;;;;;;;7.57;3.75;;;34.20;80.30;;;;;;8308666;28;20029;-80
2023/07/09 08:54:00;;;;;;;8.27;3.42;;;34.20;84.50;;;;;;8323155;28;20375;-82
2023/07/09 08:58:05;;;;;;;4.55;3.20;;;34.30;83.20;;;;;;8325866;28;20544;-80
2023/07/09 09:02:18;;;;;;;4.35;3.40;;;34.50;77.10;;;;;;8324607;28;20025;-81
2023/07/09 09:06:22;;;;;;;6.25;3.70;;;34.20;75.30;;;;;;8326150;28;20395;-81
2023/07/09 09:10:36;;;;;;;5.55;3.42;;;34.30;84.30;;;;;;8323896;28;20117;-81
2023/07/09 09:14:41;;;;;;;4.90;3.30;;;34.10;80.80;;;;;;8310370;28;20040;-81
2023/07/09 09:18:43;;;;;;;3.90;3.10;;;34.30;78.20;;;;;;8327344;28;20029;-81
2023/07/09 09:22:54;;;;;;;7.85;3.50;;;34.70;75.10;;;;;;8309834;28;20510;-81
2023/07/09 09:26:58;;;;;;;5.43;2.50;;;34.80;79.60;;;;;;8325711;28;20268;-81
2023/07/09 09:30:59;;;;;;;7.90;3.00;;;34.60;73.20;;;;;;8327146;28;20048;-81
2023/07/09 09:35:10;;;;;;;5.40;3.38;;;34.70;70.10;;;;;;8326192;28;20025;-81
2023/07/09 09:39:11;;;;;;;5.75;3.13;;;34.80;71.60;;;;;;8309140;28;20063;-81
2023/07/09 09:43:19;;;;;;;6.53;3.30;;;34.70;73.50;;;;;;8309797;28;20029;-81
2023/07/09 09:47:20;;;;;;;7.15;2.83;;;34.80;68.60;;;;;;8325023;28;20542;-81
2023/07/09 09:51:22;;;;;;;5.35;3.47;;;35.20;69.20;;;;;;8308532;28;20025;-81
2023/07/09 09:55:28;;;;;;;7.45;3.40;;;34.90;71.40;;;;;;8325100;28;20211;-80
2023/07/09 09:59:35;;;;;;;4.20;3.10;;;34.70;70.50;;;;;;8306741;28;20703;-80
2023/07/09 10:03:38;;;;;;;4.80;3.50;;;34.40;73.70;;;;;;8302607;28;20494;-81
2023/07/09 10:08:09;;;;;;;8.38;2.80;;;34.60;72.60;;;;;;8323699;28;20044;-81
2023/07/09 10:12:23;;;;;;;3.88;2.70;;;34.90;67.30;;;;;;8273016;28;20147;-81
2023/07/09 10:16:38;;;;;;;6.07;3.08;;;35.20;62.90;;;;;;8321717;28;20369;-81
2023/07/09 10:20:50;;;;;;;6.00;2.63;;;35.10;63.10;;;;;;8316000;28;20029;-83
2023/07/09 10:24:57;;;;;;;7.05;3.05;;;35.00;62.40;;;;;;8303160;28;20045;-81
2023/07/09 10:29:27;;;;;;;5.32;2.70;;;35.10;67.40;;;;;;8330790;28;20021;-82
2023/07/09 10:33:45;;;;;;;7.43;3.30;;;35.30;61.30;;;;;;8329567;28;20436;-81
2023/07/09 10:38:27;;;;;;;4.97;3.22;;;35.20;65.60;;;;;;8315874;28;20048;-81
2023/07/09 10:42:35;;;;;;;7.93;3.13;;;35.10;60.10;;;;;;8279450;28;20045;-81
2023/07/09 10:46:40;;;;;;;4.75;3.15;;;35.30;65.30;;;;;;8326166;28;20698;-81
2023/07/09 10:50:45;;;;;;;7.65;3.50;;;36.30;63.60;;;;;;8326377;28;20175;-80
2023/07/09 10:55:04;;;;;;;5.28;3.30;;;36.60;54.80;;;;;;8316046;28;20113;-80
2023/07/09 10:59:26;;;;;;;5.45;3.38;;;37.60;59.20;;;;;;8331041;28;20398;-79
2023/07/09 11:03:43;;;;;;;5.15;3.22;;;37.30;58.00;;;;;;8332457;28;20033;-79
2023/07/09 11:07:47;;;;;;;5.75;3.13;;;37.20;54.40;;;;;;8314769;28;20048;-81
2023/07/09 11:11:52;;;;;;;6.95;3.70;;;37.50;49.60;;;;;;8332152;28;20029;-81
2023/07/09 11:15:56;;;;;;;5.65;3.50;;;37.50;50.20;;;;;;8334649;28;20387;-80
2023/07/09 11:19:59;;;;;;;6.65;3.65;;;38.10;52.50;;;;;;8314983;28;20441;-82
2023/07/09 11:24:01;;;;;;;5.35;3.00;;;38.50;55.90;;;;;;8331465;28;20045;-80
2023/07/09 11:28:05;;;;;;;4.43;3.22;;;38.40;47.00;;;;;;8313108;28;20017;-81
2023/07/09 11:32:09;;;;;;;5.05;3.22;;;38.70;49.80;;;;;;8305503;28;20033;-81
2023/07/09 11:36:13;;;;;;;6.25;3.60;;;38.70;50.70;;;;;;8312846;28;20049;-80
2023/07/09 11:40:14;;;;;;;6.85;3.63;;;37.80;48.10;;;;;;8313887;28;20038;-80
2023/07/09 11:44:21;;;;;;;8.75;3.63;;;37.70;49.70;;;;;;8314255;28;20034;-80
2023/07/09 12:04:43;;;;;;;7.40;3.85;;;39.20;42.70;;;;;;8328402;28;20100;-80
2023/07/09 12:08:46;;;;;;;7.75;4.43;;;40.00;42.40;;;;;;8308921;28;20059;-82
2023/07/09 12:12:46;;;;;;;9.02;4.00;;;40.70;44.70;;;;;;8307009;28;20030;-81
2023/07/09 12:16:50;;;;;;;5.70;3.67;;;40.60;41.40;;;;;;8328320;28;20152;-81
2023/07/09 12:20:52;;;;;;;5.72;4.10;;;41.60;39.40;;;;;;8308468;28;20037;-81
2023/07/09 12:24:54;;;;;;;5.47;3.65;;;41.70;39.90;;;;;;8311234;28;20758;-81
2023/07/09 12:28:57;;;;;;;5.70;3.58;;;42.20;41.90;;;;;;8308240;28;20029;-80
2023/07/09 12:32:58;;;;;;;7.80;4.03;;;42.50;38.80;;;;;;8311375;28;20025;-81
2023/07/09 12:36:59;;;;;;;5.15;3.50;;;42.50;42.20;;;;;;8325885;28;20472;-80
2023/07/09 12:41:02;;;;;;;6.30;3.58;;;41.30;43.70;;;;;;8329465;28;20035;-80
2023/07/09 12:45:04;;;;;;;7.30;3.70;;;41.20;37.50;;;;;;8328663;28;20104;-80
2023/07/09 12:49:05;;;;;;;7.80;3.88;;;40.30;44.40;;;;;;8309449;28;20029;-81
2023/07/09 12:53:27;;;;;;;5.97;3.83;;;40.20;43.20;;;;;;8301926;28;20027;-81
2023/07/09 12:57:30;;;;;;;6.60;3.90;;;40.60;44.00;;;;;;8306020;28;20031;-81
2023/07/09 13:12:15;;;;;;;6.78;3.75;;;41.60;39.70;;;;;;8321181;28;20099;-80
2023/07/09 13:21:20;;;;;;;5.35;3.55;;;39.20;42.20;;;;;;8323177;28;20080;-82
2023/07/09 13:25:20;;;;;;;7.53;4.10;;;40.30;44.30;;;;;;8307003;28;20025;-81
2023/07/09 13:29:21;;;;;;;8.20;4.22;;;42.00;38.30;;;;;;8302959;28;20036;-81
2023/07/09 13:33:22;;;;;;;6.72;4.00;;;43.10;39.10;;;;;;8327468;28;20048;-82
2023/07/09 13:37:23;;;;;;;6.32;4.13;;;44.20;35.40;;;;;;8307883;28;20120;-81
2023/07/09 13:41:25;;;;;;;4.18;3.45;;;44.10;33.70;;;;;;8306017;28;20029;-81
2023/07/09 13:45:26;;;;;;;8.32;3.80;;;43.20;34.30;;;;;;8310018;28;20017;-82
2023/07/09 13:49:30;;;;;;;6.45;3.78;;;42.60;35.50;;;;;;8303551;28;20025;-82
2023/07/09 13:53:32;;;;;;;5.68;3.80;;;43.30;37.30;;;;;;8309058;28;20033;-81
2023/07/09 13:57:32;;;;;;;5.20;3.72;;;44.90;35.20;;;;;;8322709;28;20032;-82
2023/07/09 14:01:35;;;;;;;9.32;4.07;;;45.70;35.80;;;;;;8322716;28;20038;-81
2023/07/09 14:25:27;;;;;;;6.68;3.95;;;43.80;34.00;;;;;;8317102;28;20029;-81
2023/07/09 14:29:28;;;;;;;6.90;3.88;;;43.30;35.40;;;;;;8309522;28;20076;-82
2023/07/09 14:33:28;;;;;;;9.23;3.80;;;44.40;32.90;;;;;;8305996;28;20475;-82
2023/07/09 14:37:29;;;;;;;6.90;3.70;;;43.10;37.10;;;;;;8311238;28;20025;-82
2023/07/09 14:41:31;;;;;;;7.57;3.72;;;43.60;35.00;;;;;;8304105;28;20116;-82
2023/07/09 14:45:32;;;;;;;7.78;3.47;;;44.70;31.20;;;;;;8323766;28;20110;-82
2023/07/09 14:49:32;;;;;;;9.07;3.60;;;43.80;35.60;;;;;;8308277;28;20022;-82
2023/07/09 14:53:33;;;;;;;6.95;3.25;;;43.80;37.40;;;;;;8315372;28;20100;-82
2023/07/09 14:57:33;;;;;;;6.45;3.90;;;44.40;35.10;;;;;;8304844;28;20558;-82
2023/07/09 15:12:18;;;;;;;5.68;3.45;;;41.80;35.70;;;;;;8330137;28;20107;-81
2023/07/09 15:21:15;;;;;;;6.93;3.55;;;40.40;35.20;;;;;;8326916;28;20115;-85
2023/07/09 15:25:20;;;;;;;6.07;3.22;;;40.20;35.90;;;;;;8329762;28;20022;-81
2023/07/09 15:29:22;;;;;;;8.43;3.80;;;39.90;34.30;;;;;;8327148;28;20040;-81
2023/07/09 15:33:22;;;;;;;9.65;3.67;;;38.90;38.60;;;;;;8331200;28;20049;-82
2023/07/09 15:37:23;;;;;;;10.35;3.40;;;39.30;38.40;;;;;;8311706;28;20033;-82
2023/07/09 15:41:24;;;;;;;7.93;3.70;;;40.00;37.10;;;;;;8333561;28;20455;-81
2023/07/09 15:45:24;;;;;;;7.88;3.25;;;40.40;35.40;;;;;;8311756;28;20080;-81
2023/07/09 15:49:25;;;;;;;7.57;3.53;;;39.50;34.50;;;;;;8330045;28;20113;-81
2023/07/09 15:53:26;;;;;;;5.10;3.25;;;38.50;35.60;;;;;;8310514;28;20797;-82
2023/07/09 16:07:53;;;;;;;6.63;3.55;;;35.00;44.40;;;;;;8327602;28;20052;-80
2023/07/09 16:17:25;;;;;;;5.72;3.00;;;34.40;41.60;;;;;;8325906;28;20514;-81
2023/07/09 16:44:10;;;;;;;8.63;4.07;;;33.30;50.40;;;;;;8361450;27;1204318;-80
2023/07/09 16:48:20;;;;;;;7.03;3.20;;;33.40;43.70;;;;;;8412570;28;20093;-80
2023/07/09 16:52:26;;;;;;;13.85;3.88;;;33.50;42.80;;;;;;8418882;28;20029;-81
2023/07/09 16:56:27;;;;;;;7.18;3.78;;;33.20;48.10;;;;;;8421449;28;20400;-81
2023/07/09 17:00:33;;;;;;;7.05;3.65;;;33.30;47.20;;;;;;8420122;28;20203;-80
2023/07/09 17:04:34;;;;;;;6.00;3.30;;;33.30;46.10;;;;;;8415891;28;20166;-80
2023/07/09 17:08:34;;;;;;;6.47;3.50;;;33.00;50.40;;;;;;8412975;28;20370;-82
2023/07/09 17:12:35;;;;;;;8.02;3.33;;;32.40;50.00;;;;;;8419545;28;20024;-81
2023/07/09 17:16:35;;;;;;;7.13;3.90;;;31.80;53.40;;;;;;8419634;28;20111;-80
2023/07/09 17:20:36;;;;;;;5.68;3.70;;;31.30;56.10;;;;;;8419344;28;20035;-82
2023/07/09 17:24:36;;;;;;;7.63;3.50;;;30.80;58.20;;;;;;8435112;28;20055;-80
2023/07/09 17:28:37;;;;;;;7.45;3.30;;;30.30;60.40;;;;;;8417616;28;20055;-81
2023/07/09 17:32:37;;;;;;;10.15;3.35;;;29.70;62.20;;;;;;8437976;28;20024;-81
2023/07/09 17:36:38;;;;;;;6.50;3.40;;;29.30;62.60;;;;;;8422403;28;20497;-80
2023/07/09 17:40:39;;;;;;;7.15;3.17;;;28.90;65.30;;;;;;8418945;28;20035;-81
2023/07/09 17:44:39;;;;;;;7.68;3.50;;;28.80;65.70;;;;;;8403261;28;20547;-81
2023/07/09 17:48:41;;;;;;;7.57;3.40;;;28.70;70.80;;;;;;8400248;28;20025;-81
2023/07/09 17:52:42;;;;;;;6.70;3.35;;;28.60;66.10;;;;;;8395376;28;20063;-81
2023/07/09 17:56:44;;;;;;;9.90;3.72;;;28.70;72.20;;;;;;8396967;28;20031;-80
2023/07/09 18:00:45;;;;;;;19.13;4.43;;;28.90;71.40;;;;;;8396257;28;20063;-81
2023/07/09 18:04:45;;;;;;;9.63;3.45;;;28.60;82.40;;;;;;8397121;28;20028;-81
2023/07/09 18:08:46;;;;;;;13.13;3.95;;;28.00;84.50;;;;;;8397338;28;20024;-80
2023/07/09 18:12:47;;;;;;;13.32;3.70;;;27.60;87.00;;;;;;8394505;28;20039;-80
2023/07/09 18:16:48;;;;;;;15.65;4.28;;;27.40;82.50;;;;;;8414108;28;20047;-79
2023/07/09 18:20:49;;;;;;;9.63;3.70;;;27.10;90.60;;;;;;8395364;28;20031;-80
2023/07/09 18:24:50;;;;;;;15.02;4.45;;;26.90;89.10;;;;;;8394528;28;20111;-80
2023/07/09 18:28:51;;;;;;;16.58;5.15;;;27.10;88.60;;;;;;8414014;28;20027;-80
2023/07/09 18:32:53;;;;;;;11.90;3.95;;;27.10;90.10;;;;;;8393530;28;20036;-80
2023/07/09 18:36:54;;;;;;;12.60;4.32;;;26.90;90.90;;;;;;8410642;28;20035;-80
2023/07/09 18:40:55;;;;;;;8.25;4.00;;;26.40;91.90;;;;;;8393713;28;20082;-80
2023/07/09 18:44:55;;;;;;;7.35;3.88;;;26.10;93.90;;;;;;8394209;28;20031;-81
2023/07/09 18:48:56;;;;;;;6.13;3.88;;;25.60;94.70;;;;;;8394201;28;20032;-81
2023/07/09 18:52:58;;;;;;;7.10;3.97;;;25.50;95.50;;;;;;8389986;28;20036;-80
2023/07/09 18:56:58;;;;;;;8.10;3.88;;;25.60;94.70;;;;;;8398498;28;20024;-80
2023/07/09 19:01:02;;;;;;;8.10;4.40;;;25.60;94.50;;;;;;8404410;28;20040;-80
2023/07/09 19:05:11;;;;;;;10.10;4.57;;;25.60;95.20;;;;;;8397606;28;20032;-81
2023/07/09 19:09:18;;;;;;;10.43;4.63;;;25.30;97.10;;;;;;8391341;28;20515;-79
2023/07/09 19:13:21;;;;;;;8.10;3.90;;;24.80;99.90;;;;;;8388978;28;20032;-80
2023/07/09 19:17:28;;;;;;;8.20;4.47;;;24.60;99.90;;;;;;8400011;28;20034;-80
2023/07/09 19:21:30;;;;;;;14.80;4.78;;;24.40;99.90;;;;;;8395676;28;20520;-80
2023/07/09 19:25:31;;;;;;;15.43;4.80;;;24.10;99.90;;;;;;8402406;28;20024;-79
2023/07/09 19:29:33;;;;;;;8.30;4.45;;;24.10;99.90;;;;;;8408651;28;20021;-79
2023/07/09 19:33:36;;;;;;;15.82;5.07;;;24.10;99.90;;;;;;8388667;28;20429;-82
2023/07/09 19:37:37;;;;;;;12.95;4.32;;;23.90;99.90;;;;;;8400370;28;20020;-80
2023/07/09 19:41:38;;;;;;;10.93;4.38;;;23.60;99.90;;;;;;8395203;28;20481;-80
2023/07/09 19:45:42;;;;;;;8.43;4.68;;;23.30;99.90;;;;;;8402974;28;20048;-79
2023/07/09 19:49:43;;;;;;;11.02;4.38;;;23.30;99.90;;;;;;8391261;28;20051;-80
2023/07/09 19:53:43;;;;;;;10.32;4.55;;;23.20;99.90;;;;;;8395746;28;20028;-79
2023/07/09 19:57:45;;;;;;;13.07;5.30;;;23.10;99.90;;;;;;8395283;28;20476;-79
2023/07/09 20:01:49;;;;;;;10.75;4.90;;;23.00;99.90;;;;;;8394792;28;20024;-80
2023/07/09 20:05:50;;;;;;;12.48;4.65;;;22.90;99.90;;;;;;8395430;28;20045;-79
2023/07/09 20:09:53;;;;;;;8.40;4.20;;;22.60;99.90;;;;;;8395801;28;20032;-80
2023/07/09 20:13:53;;;;;;;11.25;4.60;;;22.40;99.90;;;;;;8389907;28;20040;-80
2023/07/09 20:17:57;;;;;;;19.20;5.60;;;22.10;99.90;;;;;;8393374;28;20017;-80
2023/07/09 20:21:58;;;;;;;14.57;5.28;;;22.00;99.90;;;;;;8398610;28;20030;-80
2023/07/09 20:25:59;;;;;;;10.00;5.10;;;21.80;99.90;;;;;;8401622;28;20488;-80
2023/07/09 20:29:59;;;;;;;15.20;5.15;;;21.50;99.90;;;;;;8390275;28;20111;-81
2023/07/09 20:34:14;;;;;;;12.15;5.47;;;21.60;99.90;;;;;;8411186;28;20047;-81
2023/07/09 20:38:18;;;;;;;11.02;5.50;;;21.30;99.90;;;;;;8393597;28;20576;-79
2023/07/09 20:42:18;;;;;;;12.13;5.45;;;21.10;99.90;;;;;;8393948;28;20233;-80
2023/07/09 20:46:19;;;;;;;7.70;4.65;;;20.90;99.90;;;;;;8411728;28;20025;-79
2023/07/09 20:50:23;;;;;;;12.18;5.32;;;20.80;99.90;;;;;;8395928;28;20021;-79
2023/07/09 20:54:23;;;;;;;8.52;5.60;;;20.70;99.90;;;;;;8394510;28;20024;-79
2023/07/09 20:58:25;;;;;;;12.10;5.63;;;20.50;99.90;;;;;;8396132;28;20052;-80
2023/07/09 21:02:26;;;;;;;10.05;5.13;;;20.40;99.90;;;;;;8393477;28;20037;-79
2023/07/09 21:06:27;;;;;;;10.55;5.35;;;20.10;99.90;;;;;;8410696;28;20028;-80
2023/07/09 21:10:27;;;;;;;10.35;4.80;;;19.90;99.90;;;;;;8411034;28;20018;-80
2023/07/09 21:14:28;;;;;;;13.02;4.95;;;20.00;99.90;;;;;;8394109;28;20063;-79
2023/07/09 21:18:32;;;;;;;9.85;5.32;;;20.10;99.90;;;;;;8398773;28;20063;-79
2023/07/09 21:22:33;;;;;;;14.18;5.75;;;20.10;99.90;;;;;;8399412;28;20033;-79
2023/07/09 21:26:33;;;;;;;11.15;5.28;;;19.90;99.90;;;;;;8417432;28;20028;-80
2023/07/09 21:30:34;;;;;;;10.02;5.00;;;19.80;99.90;;;;;;8400076;28;20032;-80
2023/07/09 21:34:35;;;;;;;10.57;4.32;;;19.70;99.90;;;;;;8399434;28;20398;-80
2023/07/09 21:38:35;;;;;;;10.52;4.75;;;19.60;99.90;;;;;;8400777;28;20029;-79
2023/07/09 21:42:36;;;;;;;10.35;4.53;;;19.60;99.90;;;;;;8399062;28;20406;-79
2023/07/09 21:46:37;;;;;;;6.97;4.53;;;19.50;99.90;;;;;;8398314;28;20020;-79
2023/07/09 21:50:37;;;;;;;9.23;5.57;;;19.40;99.90;;;;;;8384862;28;20031;-79
2023/07/09 21:54:38;;;;;;;9.27;5.25;;;19.10;99.90;;;;;;8397750;28;20020;-79
2023/07/09 21:58:38;;;;;;;11.07;5.38;;;19.00;99.90;;;;;;8391060;28;20044;-79
2023/07/09 22:02:39;;;;;;;10.23;4.82;;;18.80;99.90;;;;;;8394379;28;20405;-80
2023/07/09 22:06:39;;;;;;;12.80;5.75;;;18.60;99.90;;;;;;8399948;28;20167;-80
2023/07/09 22:10:41;;;;;;;10.70;5.25;;;18.70;99.90;;;;;;8399661;28;20546;-79
2023/07/09 22:14:43;;;;;;;7.50;5.85;;;18.90;99.90;;;;;;8397674;28;20044;-79
2023/07/09 22:18:43;;;;;;;9.25;5.50;;;19.10;99.90;;;;;;8398363;28;20082;-80
2023/07/09 22:22:44;;;;;;;10.48;5.40;;;18.90;99.90;;;;;;8398656;28;20033;-79
2023/07/09 22:26:48;;;;;;;10.75;5.53;;;18.70;99.90;;;;;;8399683;28;20028;-79
2023/07/09 22:30:48;;;;;;;9.65;5.28;;;18.60;99.90;;;;;;8399759;28;20497;-79
2023/07/09 22:34:49;;;;;;;11.30;5.57;;;18.30;99.90;;;;;;8399634;28;20029;-79
2023/07/09 22:38:50;;;;;;;9.10;5.05;;;18.10;99.90;;;;;;8415280;28;20032;-79
2023/07/09 22:42:55;;;;;;;13.10;5.32;;;17.80;99.90;;;;;;8397347;28;20036;-80